createdAt,value
2023-03-31T00:01:10.629Z,83.70
2023-03-31T00:03:44.275Z,83.70
2023-03-31T00:06:18.552Z,84.00
2023-03-31T00:08:51.994Z,84.20
2023-03-31T00:11:20.860Z,84.60
2023-03-31T00:13:49.502Z,85.20
2023-03-31T00:16:17.770Z,85.50
2023-03-31T00:18:47.653Z,85.80
2023-03-31T00:21:25.678Z,86.20
2023-03-31T00:23:56.842Z,86.80
2023-03-31T00:26:26.290Z,87.30
2023-03-31T00:28:55.468Z,87.50
2023-03-31T00:31:24.692Z,87.70
2023-03-31T00:33:52.879Z,87.80
2023-03-31T00:36:27.366Z,87.90
2023-03-31T00:38:56.253Z,88.20
2023-03-31T00:41:24.588Z,88.20
2023-03-31T00:44:13.028Z,88.40
2023-03-31T00:46:47.095Z,88.40
2023-03-31T00:49:22.871Z,88.50
2023-03-31T00:51:56.530Z,88.60
2023-03-31T00:54:27.383Z,88.60
2023-03-31T00:57:03.166Z,88.70
2023-03-31T00:59:36.716Z,88.80
2023-03-31T01:02:05.507Z,88.80
2023-03-31T01:04:40.648Z,88.60
2023-03-31T01:07:17.505Z,88.80
2023-03-31T01:09:47.286Z,88.70
2023-03-31T01:12:18.504Z,88.80
2023-03-31T01:14:46.599Z,88.90
2023-03-31T01:17:19.144Z,88.90
2023-03-31T01:20:06.524Z,89.00
2023-03-31T01:23:21.952Z,88.90
2023-03-31T01:26:38.560Z,88.90
2023-03-31T01:29:22.066Z,88.90
2023-03-31T01:32:21.965Z,89.00
2023-03-31T01:35:24.932Z,89.10
2023-03-31T01:38:57.281Z,89.10
2023-03-31T01:41:41.640Z,89.10
2023-03-31T01:44:20.871Z,89.20
2023-03-31T01:46:56.152Z,89.10
2023-03-31T01:49:32.542Z,89.10
2023-03-31T01:52:06.323Z,89.10
2023-03-31T01:54:41.061Z,89.10
2023-03-31T01:57:16.891Z,89.20
2023-03-31T01:59:53.258Z,89.20
2023-03-31T02:02:27.834Z,89.30
2023-03-31T02:05:01.669Z,89.40
2023-03-31T02:07:36.051Z,89.50
2023-03-31T02:10:09.596Z,89.60
2023-03-31T02:12:42.350Z,89.60
2023-03-31T02:15:15.588Z,89.60
2023-03-31T02:17:46.796Z,89.80
2023-03-31T02:20:19.485Z,89.80
2023-03-31T02:22:53.181Z,89.90
2023-03-31T02:25:26.469Z,90.00
2023-03-31T02:28:00.807Z,90.00
2023-03-31T02:30:40.156Z,90.00
2023-03-31T02:33:08.819Z,90.00
2023-03-31T02:35:37.082Z,90.10
2023-03-31T02:38:06.841Z,89.90
2023-03-31T02:40:35.119Z,89.80
2023-03-31T02:43:04.736Z,89.80
2023-03-31T02:45:44.286Z,89.70
2023-03-31T02:48:18.636Z,89.80
2023-03-31T02:51:32.150Z,89.80
2023-03-31T02:54:36.260Z,89.80
2023-03-31T02:57:50.398Z,89.90
2023-03-31T03:00:30.344Z,89.80
2023-03-31T03:03:17.375Z,89.90
2023-03-31T03:05:54.870Z,89.90
2023-03-31T03:08:32.211Z,89.80
2023-03-31T03:11:08.165Z,89.70
2023-03-31T03:13:46.383Z,89.60
2023-03-31T03:16:24.566Z,89.60
2023-03-31T03:19:00.846Z,89.50
2023-03-31T03:21:30.127Z,89.30
2023-03-31T03:23:58.570Z,89.30
2023-03-31T03:26:28.154Z,89.40
2023-03-31T03:28:58.566Z,89.30
2023-03-31T03:31:28.194Z,89.20
2023-03-31T03:33:56.449Z,89.20
2023-03-31T03:36:24.798Z,89.30
2023-03-31T03:38:53.097Z,89.40
2023-03-31T03:41:21.290Z,89.40
2023-03-31T03:43:49.474Z,89.50
2023-03-31T03:46:18.113Z,89.40
2023-03-31T03:48:47.646Z,89.40
2023-03-31T03:51:15.863Z,89.40
2023-03-31T03:53:44.062Z,89.40
2023-03-31T03:56:12.335Z,89.30
2023-03-31T03:58:40.560Z,89.40
2023-03-31T04:01:08.966Z,89.40
2023-03-31T04:03:37.136Z,89.30
2023-03-31T04:06:07.745Z,89.20
2023-03-31T04:08:36.995Z,89.00
2023-03-31T04:11:05.694Z,89.10
2023-03-31T04:13:33.915Z,88.90
2023-03-31T04:16:02.171Z,88.90
2023-03-31T04:18:30.346Z,89.00
2023-03-31T04:21:04.936Z,88.80
2023-03-31T04:23:38.451Z,88.80
2023-03-31T04:26:08.866Z,88.60
2023-03-31T04:28:37.834Z,88.50
2023-03-31T04:31:07.209Z,88.30
2023-03-31T04:33:38.732Z,88.30
2023-03-31T04:36:18.017Z,88.10
2023-03-31T04:38:50.948Z,87.60
2023-03-31T04:41:19.526Z,87.70
2023-03-31T04:43:47.774Z,87.70
2023-03-31T04:46:16.360Z,87.60
2023-03-31T04:48:44.917Z,87.50
2023-03-31T04:51:15.388Z,87.40
2023-03-31T04:53:43.699Z,87.50
2023-03-31T04:56:13.616Z,87.10
2023-03-31T04:58:41.838Z,87.20
2023-03-31T05:01:10.284Z,87.10
2023-03-31T05:03:45.491Z,87.20
2023-03-31T05:06:13.927Z,87.10
2023-03-31T05:08:42.333Z,87.10
2023-03-31T05:11:12.118Z,87.00
2023-03-31T05:13:40.365Z,87.30
2023-03-31T05:16:12.418Z,87.30
2023-03-31T05:18:40.705Z,87.50
2023-03-31T05:21:14.266Z,87.60
2023-03-31T05:23:43.277Z,87.60
2023-03-31T05:26:13.688Z,87.90
2023-03-31T05:28:42.933Z,88.20
2023-03-31T05:31:13.022Z,88.50
2023-03-31T05:33:42.302Z,88.50
2023-03-31T05:36:13.428Z,88.60
2023-03-31T05:38:42.637Z,88.60
2023-03-31T05:41:12.827Z,88.70
2023-03-31T05:43:42.712Z,88.70
2023-03-31T05:46:11.377Z,88.50
2023-03-31T05:48:39.792Z,88.60
2023-03-31T05:51:08.066Z,88.70
2023-03-31T05:53:36.334Z,88.80
2023-03-31T05:56:08.017Z,88.70
2023-03-31T05:58:38.645Z,88.80
2023-03-31T06:01:10.147Z,88.90
2023-03-31T06:03:41.908Z,89.10
2023-03-31T06:06:13.070Z,89.00
2023-03-31T06:08:41.782Z,89.00
2023-03-31T06:11:13.443Z,89.10
2023-03-31T06:13:44.113Z,89.20
2023-03-31T06:16:14.324Z,89.30
2023-03-31T06:18:43.384Z,89.30
2023-03-31T06:21:16.339Z,89.40
2023-03-31T06:23:45.511Z,89.50
2023-03-31T06:26:17.008Z,89.50
2023-03-31T06:28:47.547Z,89.70
2023-03-31T06:31:18.969Z,89.70
2023-03-31T06:33:47.596Z,89.90
2023-03-31T06:36:18.797Z,89.80
2023-03-31T06:38:47.499Z,89.90
2023-03-31T06:41:18.135Z,90.10
2023-03-31T06:43:47.882Z,90.20
2023-03-31T06:46:16.820Z,90.10
2023-03-31T06:48:45.065Z,90.20
2023-03-31T06:51:14.069Z,90.20
2023-03-31T06:53:42.293Z,90.40
2023-03-31T06:56:10.705Z,90.60
2023-03-31T06:58:38.939Z,90.60
2023-03-31T07:01:08.913Z,90.60
2023-03-31T07:03:37.952Z,90.80
2023-03-31T07:06:06.891Z,90.80
2023-03-31T07:08:35.203Z,91.00
2023-03-31T07:11:03.825Z,91.10
2023-03-31T07:13:32.305Z,91.20
2023-03-31T07:16:00.715Z,91.20
2023-03-31T07:18:35.393Z,91.20
2023-03-31T07:21:07.189Z,91.10
2023-03-31T07:23:38.365Z,91.10
2023-03-31T07:26:06.938Z,91.00
2023-03-31T07:28:36.919Z,91.00
2023-03-31T07:31:11.883Z,91.00
2023-03-31T07:33:41.688Z,91.00
2023-03-31T07:36:13.791Z,91.10
2023-03-31T07:38:43.572Z,91.00
2023-03-31T07:41:13.250Z,90.90
2023-03-31T07:43:41.977Z,90.90
2023-03-31T07:46:17.818Z,90.90
2023-03-31T07:48:48.266Z,90.70
2023-03-31T07:51:17.696Z,90.80
2023-03-31T07:53:46.136Z,90.60
2023-03-31T07:56:14.848Z,90.70
2023-03-31T07:58:43.074Z,90.70
2023-03-31T08:01:12.272Z,90.60
2023-03-31T08:03:40.612Z,90.40
2023-03-31T08:06:10.985Z,90.50
2023-03-31T08:08:43.305Z,90.00
2023-03-31T08:11:11.558Z,89.90
2023-03-31T08:13:39.801Z,89.70
2023-03-31T08:16:08.410Z,89.60
2023-03-31T08:18:37.189Z,89.40
2023-03-31T08:21:06.153Z,89.20
2023-03-31T08:23:35.900Z,89.20
2023-03-31T08:26:13.997Z,89.00
2023-03-31T08:28:43.977Z,89.20
2023-03-31T08:31:12.774Z,88.90
2023-03-31T08:33:41.106Z,88.80
2023-03-31T08:36:11.108Z,88.70
2023-03-31T08:38:45.962Z,88.50
2023-03-31T08:41:31.223Z,88.50
2023-03-31T08:44:02.999Z,88.20
2023-03-31T08:46:35.547Z,87.50
2023-03-31T08:49:06.162Z,87.40
2023-03-31T08:51:38.600Z,87.50
2023-03-31T08:54:15.265Z,87.20
2023-03-31T08:56:49.019Z,86.90
2023-03-31T08:59:27.386Z,86.30
2023-03-31T09:02:03.546Z,86.20
2023-03-31T09:05:00.176Z,85.90
2023-03-31T09:07:39.178Z,85.10
2023-03-31T09:10:38.922Z,85.10
2023-03-31T09:13:33.729Z,84.90
2023-03-31T09:16:08.188Z,85.00
2023-03-31T09:18:38.702Z,85.40
2023-03-31T09:21:15.253Z,86.00
2023-03-31T09:23:51.271Z,86.80
2023-03-31T09:26:29.259Z,87.10
2023-03-31T09:29:00.750Z,87.10
2023-03-31T09:31:29.813Z,87.40
2023-03-31T09:34:03.514Z,87.80
2023-03-31T09:36:33.236Z,87.70
2023-03-31T09:39:01.500Z,87.20
2023-03-31T09:41:33.034Z,87.00
2023-03-31T09:44:02.645Z,85.70
2023-03-31T09:46:34.607Z,85.10
2023-03-31T09:49:08.193Z,85.10
2023-03-31T09:51:38.799Z,84.40
2023-03-31T09:54:16.673Z,84.70
2023-03-31T09:56:53.581Z,84.60
2023-03-31T09:59:24.556Z,85.10
2023-03-31T10:01:55.040Z,83.60
2023-03-31T10:04:26.010Z,82.60
2023-03-31T10:06:55.874Z,83.70
2023-03-31T10:09:29.075Z,81.20
2023-03-31T10:12:01.292Z,80.80
2023-03-31T10:14:40.319Z,81.10
2023-03-31T10:17:08.578Z,81.80
2023-03-31T10:19:38.724Z,82.70
2023-03-31T10:22:15.584Z,82.80
2023-03-31T10:24:45.872Z,83.10
2023-03-31T10:27:24.887Z,84.10
2023-03-31T10:29:54.869Z,83.60
2023-03-31T10:32:29.056Z,83.60
2023-03-31T10:35:00.151Z,83.10
2023-03-31T10:37:31.629Z,81.60
2023-03-31T10:40:02.262Z,81.90
2023-03-31T10:42:32.006Z,81.00
2023-03-31T10:45:23.268Z,80.60
2023-03-31T10:48:00.391Z,79.00
2023-03-31T10:50:31.618Z,78.20
2023-03-31T10:53:06.190Z,78.30
2023-03-31T10:55:41.074Z,78.40
2023-03-31T10:58:27.091Z,79.10
2023-03-31T11:01:08.303Z,78.30
2023-03-31T11:03:49.971Z,77.40
2023-03-31T11:06:26.040Z,78.00
2023-03-31T11:09:11.894Z,77.20
2023-03-31T11:12:00.005Z,76.60
2023-03-31T11:14:43.320Z,75.60
2023-03-31T11:17:26.283Z,76.50
2023-03-31T11:20:06.980Z,76.30
2023-03-31T11:22:45.473Z,75.80
2023-03-31T11:25:25.146Z,76.70
2023-03-31T11:28:22.475Z,76.10
2023-03-31T11:30:59.534Z,74.60
2023-03-31T11:33:47.640Z,75.30
2023-03-31T11:36:41.941Z,74.90
2023-03-31T11:39:27.257Z,74.90
2023-03-31T11:41:59.641Z,75.60
2023-03-31T11:44:33.127Z,75.90
2023-03-31T11:47:08.102Z,76.60
2023-03-31T11:49:51.893Z,78.00
2023-03-31T11:52:25.538Z,78.60
2023-03-31T11:55:00.207Z,78.40
2023-03-31T11:57:34.894Z,78.70
2023-03-31T12:00:11.358Z,77.80
2023-03-31T12:02:50.352Z,77.40
2023-03-31T12:05:20.730Z,76.20
2023-03-31T12:07:57.795Z,76.20
2023-03-31T12:10:35.617Z,75.90
2023-03-31T12:13:17.785Z,75.30
2023-03-31T12:15:53.897Z,76.20
2023-03-31T12:18:27.276Z,75.40
2023-03-31T12:20:59.043Z,74.70
2023-03-31T12:23:32.132Z,74.50
2023-03-31T12:26:07.297Z,74.80
2023-03-31T12:28:37.421Z,73.80
2023-03-31T12:33:39.847Z,75.60
2023-03-31T12:36:18.564Z,74.60
2023-03-31T12:39:08.754Z,74.70
2023-03-31T12:41:48.265Z,73.30
2023-03-31T12:44:31.931Z,73.90
2023-03-31T12:47:26.895Z,72.70
2023-03-31T12:50:27.137Z,73.00
2023-03-31T12:53:06.773Z,73.40
2023-03-31T12:55:38.973Z,72.00
2023-03-31T12:58:38.879Z,72.50
2023-03-31T13:01:19.887Z,73.60
2023-03-31T13:04:10.727Z,72.40
2023-03-31T13:07:01.123Z,71.60
2023-03-31T13:09:53.928Z,71.20
2023-03-31T13:12:25.672Z,70.50
2023-03-31T13:14:58.983Z,69.90
2023-03-31T13:17:32.902Z,70.00
2023-03-31T13:20:35.786Z,69.90
2023-03-31T13:23:19.668Z,69.30
2023-03-31T13:25:50.713Z,69.40
2023-03-31T13:28:39.999Z,70.30
2023-03-31T13:31:11.230Z,70.80
2023-03-31T13:33:45.774Z,69.50
2023-03-31T13:36:55.370Z,69.50
2023-03-31T13:40:06.323Z,68.90
2023-03-31T13:42:58.312Z,68.90
2023-03-31T13:45:59.749Z,66.70
2023-03-31T13:48:51.027Z,68.20
2023-03-31T13:51:27.821Z,69.90
2023-03-31T13:54:32.385Z,72.80
2023-03-31T13:57:44.515Z,76.50
2023-03-31T14:00:33.975Z,78.60
2023-03-31T14:03:19.411Z,79.60
2023-03-31T14:05:55.419Z,80.50
2023-03-31T14:08:38.107Z,81.80
2023-03-31T14:11:23.538Z,81.20
2023-03-31T14:14:05.954Z,82.60
2023-03-31T14:16:39.067Z,81.50
2023-03-31T14:19:42.566Z,81.90
2023-03-31T14:22:22.657Z,82.00
2023-03-31T14:24:59.607Z,81.50
2023-03-31T14:27:50.236Z,81.50
2023-03-31T14:30:32.015Z,82.50
2023-03-31T14:33:15.164Z,82.30
2023-03-31T14:35:49.097Z,81.70
2023-03-31T14:38:20.785Z,81.40
2023-03-31T14:40:53.888Z,80.60
2023-03-31T14:43:27.618Z,80.10
2023-03-31T14:46:03.032Z,79.10
2023-03-31T14:48:35.880Z,78.60
2023-03-31T14:51:10.853Z,78.40
2023-03-31T14:53:39.533Z,78.80
2023-03-31T14:56:11.155Z,79.80
2023-03-31T14:58:43.988Z,80.10
2023-03-31T15:01:19.732Z,79.40
2023-03-31T15:03:48.597Z,78.70
2023-03-31T15:06:17.585Z,79.00
2023-03-31T15:08:46.500Z,78.80
2023-03-31T15:11:19.547Z,78.50
2023-03-31T15:14:03.627Z,79.10
2023-03-31T15:16:42.049Z,78.40
2023-03-31T15:19:17.395Z,79.40
2023-03-31T15:21:46.717Z,79.60
2023-03-31T15:24:16.314Z,79.40
2023-03-31T15:26:49.023Z,79.50
2023-03-31T15:29:21.996Z,79.10
2023-03-31T15:31:52.235Z,79.30
2023-03-31T15:34:28.074Z,80.00
2023-03-31T15:36:58.307Z,80.00
2023-03-31T15:39:28.927Z,80.00
2023-03-31T15:41:58.614Z,80.10
2023-03-31T15:44:46.378Z,80.50
2023-03-31T15:47:21.786Z,80.20
2023-03-31T15:49:56.258Z,80.10
2023-03-31T15:52:30.937Z,79.90
2023-03-31T15:54:59.267Z,80.10
2023-03-31T15:57:35.422Z,80.20
2023-03-31T16:00:07.720Z,81.20
2023-03-31T16:02:46.377Z,81.40
2023-03-31T16:05:37.379Z,80.80
2023-03-31T16:08:15.971Z,81.80
2023-03-31T16:10:44.690Z,81.80
2023-03-31T16:13:23.034Z,81.60
2023-03-31T16:15:56.272Z,82.10
2023-03-31T16:18:32.980Z,82.50
2023-03-31T16:21:05.301Z,82.20
2023-03-31T16:23:38.757Z,82.30
2023-03-31T16:26:07.999Z,82.80
2023-03-31T16:28:39.204Z,82.30
2023-03-31T16:31:35.181Z,82.20
2023-03-31T16:34:07.352Z,82.50
2023-03-31T16:36:36.263Z,82.70
2023-03-31T16:39:06.822Z,82.80
2023-03-31T16:41:36.788Z,82.90
2023-03-31T16:44:06.531Z,83.00
2023-03-31T16:46:34.875Z,83.70
2023-03-31T16:49:04.643Z,84.10
2023-03-31T16:51:33.047Z,84.70
2023-03-31T16:54:01.528Z,85.00
2023-03-31T16:56:29.769Z,85.10
2023-03-31T16:58:57.986Z,85.40
2023-03-31T17:01:26.391Z,85.80
2023-03-31T17:03:55.110Z,85.50
2023-03-31T17:06:24.953Z,85.60
2023-03-31T17:08:53.258Z,85.60
2023-03-31T17:11:21.607Z,85.30
2023-03-31T17:13:50.004Z,85.20
2023-03-31T17:19:06.892Z,85.10
2023-03-31T17:21:37.417Z,85.00
2023-03-31T17:24:08.489Z,85.30
2023-03-31T17:26:37.730Z,85.10
2023-03-31T17:29:06.305Z,85.10
2023-03-31T17:31:34.948Z,85.00
2023-03-31T17:34:03.215Z,85.00
2023-03-31T17:36:31.477Z,85.50
2023-03-31T17:39:01.195Z,85.80
2023-03-31T17:41:30.537Z,85.60
2023-03-31T17:43:59.244Z,85.80
2023-03-31T17:46:27.768Z,85.90
2023-03-31T17:48:58.364Z,86.00
2023-03-31T17:51:27.655Z,86.10
2023-03-31T17:53:56.279Z,86.40
2023-03-31T17:56:27.573Z,86.40
2023-03-31T17:58:57.304Z,86.50
2023-03-31T18:01:25.570Z,86.40
2023-03-31T18:03:55.913Z,86.40
2023-03-31T18:06:24.871Z,86.10
2023-03-31T18:08:53.151Z,86.00
2023-03-31T18:11:22.001Z,86.10
2023-03-31T18:13:51.581Z,85.60
2023-03-31T18:16:19.992Z,85.20
2023-03-31T18:18:49.036Z,85.00
2023-03-31T18:21:17.267Z,84.70
2023-03-31T18:23:46.377Z,84.40
2023-03-31T18:26:14.877Z,84.40
2023-03-31T18:28:43.122Z,84.10
2023-03-31T18:31:13.646Z,84.00
2023-03-31T18:33:42.718Z,83.70
2023-03-31T18:36:18.518Z,83.60
2023-03-31T18:38:47.337Z,83.40
2023-03-31T18:41:19.253Z,82.90
2023-03-31T18:43:50.681Z,82.80
2023-03-31T18:46:21.520Z,82.60
2023-03-31T18:48:50.273Z,82.60
2023-03-31T18:51:19.232Z,82.70
2023-03-31T18:53:47.555Z,83.10
2023-03-31T18:56:15.904Z,83.00
2023-03-31T18:58:44.647Z,83.60
2023-03-31T19:01:13.027Z,83.90
2023-03-31T19:03:44.419Z,84.30
2023-03-31T19:06:13.144Z,84.60
2023-03-31T19:08:41.727Z,85.00
2023-03-31T19:11:12.846Z,85.40
2023-03-31T19:13:42.074Z,85.60
2023-03-31T19:16:11.526Z,85.80
2023-03-31T19:18:40.872Z,86.10
2023-03-31T19:21:11.027Z,86.50
2023-03-31T19:23:39.342Z,86.80
2023-03-31T19:26:09.084Z,87.10
2023-03-31T19:28:37.375Z,87.30
2023-03-31T19:31:06.521Z,87.30
2023-03-31T19:33:35.169Z,87.10
2023-03-31T19:36:03.880Z,87.00
2023-03-31T19:38:36.632Z,86.80
2023-03-31T19:41:05.757Z,86.50
2023-03-31T19:43:34.604Z,86.30
2023-03-31T19:46:02.916Z,86.30
2023-03-31T19:48:34.034Z,86.20
2023-03-31T19:51:05.923Z,86.10
2023-03-31T19:53:37.893Z,86.20
2023-03-31T19:56:09.149Z,86.20
2023-03-31T19:58:38.758Z,86.30
2023-03-31T20:01:10.260Z,86.40
2023-03-31T20:03:38.731Z,86.40
2023-03-31T20:06:10.522Z,86.50
2023-03-31T20:08:41.577Z,86.60
2023-03-31T20:11:12.429Z,86.50
2023-03-31T20:13:41.074Z,86.40
2023-03-31T20:16:12.730Z,86.50
2023-03-31T20:18:43.561Z,86.40
2023-03-31T20:21:14.664Z,86.40
2023-03-31T20:23:44.624Z,86.60
2023-03-31T20:26:16.393Z,86.60
2023-03-31T20:28:44.821Z,86.60
2023-03-31T20:31:15.532Z,86.70
2023-03-31T20:33:44.646Z,86.90
2023-03-31T20:36:16.014Z,87.20
2023-03-31T20:38:50.921Z,87.20
2023-03-31T20:41:21.721Z,87.30
2023-03-31T20:43:50.547Z,87.20
2023-03-31T20:46:19.608Z,87.20
2023-03-31T20:48:51.269Z,87.30
2023-03-31T20:51:22.316Z,87.30
2023-03-31T20:53:54.041Z,87.30
2023-03-31T20:56:24.359Z,87.10
2023-03-31T20:58:53.665Z,86.90
2023-03-31T21:01:23.613Z,86.80
2023-03-31T21:03:52.043Z,86.60
2023-03-31T21:06:20.638Z,86.60
2023-03-31T21:08:55.548Z,86.50
2023-03-31T21:11:24.125Z,86.60
2023-03-31T21:13:53.314Z,86.70
2023-03-31T21:16:23.087Z,86.90
2023-03-31T21:18:54.680Z,87.10
2023-03-31T21:21:24.992Z,87.20
2023-03-31T21:23:55.522Z,87.50
2023-03-31T21:26:25.001Z,87.50
2023-03-31T21:28:54.876Z,87.70
2023-03-31T21:31:25.737Z,87.80
2023-03-31T21:33:56.666Z,87.80
2023-03-31T21:36:26.725Z,87.80
2023-03-31T21:38:57.421Z,87.90
2023-03-31T21:41:28.774Z,87.90
2023-03-31T21:44:00.521Z,88.00
2023-03-31T21:46:34.021Z,88.10
2023-03-31T21:49:02.894Z,88.20
2023-03-31T21:51:31.487Z,88.00
2023-03-31T21:54:01.285Z,88.20
2023-03-31T21:56:51.030Z,88.40
2023-03-31T21:59:19.378Z,88.20
2023-03-31T22:01:47.684Z,88.30
2023-03-31T22:04:16.134Z,88.30
2023-03-31T22:06:44.380Z,88.30
2023-03-31T22:09:14.053Z,88.40
2023-03-31T22:11:42.253Z,88.50
2023-03-31T22:14:11.090Z,88.50
2023-03-31T22:16:39.690Z,88.70
2023-03-31T22:19:08.168Z,88.70
2023-03-31T22:21:36.586Z,88.80
2023-03-31T22:24:04.983Z,88.90
2023-03-31T22:26:34.567Z,89.10
2023-03-31T22:29:02.847Z,89.30
2023-03-31T22:31:31.352Z,89.50
2023-03-31T22:33:59.618Z,89.60
2023-03-31T22:36:28.437Z,89.70
2023-03-31T22:38:56.695Z,89.80
2023-03-31T22:41:24.932Z,89.90
2023-03-31T22:43:54.665Z,90.00
2023-03-31T22:46:22.917Z,90.20
2023-03-31T22:48:51.496Z,90.10
2023-03-31T22:51:19.765Z,90.20
2023-03-31T22:53:51.935Z,90.10
2023-03-31T22:56:21.223Z,90.10
2023-03-31T22:58:49.925Z,90.10
2023-03-31T23:01:21.912Z,90.10
2023-03-31T23:03:50.384Z,90.10
2023-03-31T23:06:19.277Z,90.10
2023-03-31T23:08:48.998Z,90.20
2023-03-31T23:11:18.664Z,90.20
2023-03-31T23:13:48.009Z,90.20
2023-03-31T23:16:21.402Z,90.30
2023-03-31T23:18:51.884Z,90.30
2023-03-31T23:21:23.506Z,90.40
2023-03-31T23:23:53.892Z,90.40
2023-03-31T23:26:23.057Z,90.40
2023-03-31T23:28:52.988Z,90.50
2023-03-31T23:31:25.650Z,90.60
2023-03-31T23:33:54.375Z,90.60
2023-03-31T23:36:23.951Z,90.70
2023-03-31T23:38:55.062Z,90.60
2023-03-31T23:41:24.070Z,90.50
2023-03-31T23:43:52.805Z,90.50
2023-03-31T23:46:24.265Z,90.50
2023-03-31T23:48:52.913Z,90.50
2023-03-31T23:51:21.121Z,90.40
2023-03-31T23:53:50.130Z,90.20
2023-03-31T23:56:18.854Z,90.10
2023-03-31T23:58:47.158Z,90.20
